createdAt,value
2023-05-14T00:02:39.800Z,78.84
2023-05-14T00:05:28.245Z,78.54
2023-05-14T00:08:16.359Z,78.38
2023-05-14T00:11:04.593Z,77.90
2023-05-14T00:13:52.563Z,77.49
2023-05-14T00:16:42.870Z,77.84
2023-05-14T00:19:42.039Z,78.15
2023-05-14T00:22:30.194Z,78.60
2023-05-14T00:25:18.322Z,79.72
2023-05-14T00:28:06.615Z,79.41
2023-05-14T00:30:54.748Z,79.22
2023-05-14T00:33:24.113Z,79.63
2023-05-14T00:35:52.494Z,79.91
2023-05-14T00:38:20.869Z,80.46
2023-05-14T00:40:52.163Z,80.29
2023-05-14T00:43:21.321Z,79.51
2023-05-14T00:45:51.355Z,79.85
2023-05-14T00:48:20.225Z,80.09
2023-05-14T00:50:49.729Z,80.28
2023-05-14T00:53:21.288Z,80.47
2023-05-14T00:55:50.178Z,80.41
2023-05-14T00:58:19.686Z,80.65
2023-05-14T01:00:48.428Z,80.67
2023-05-14T01:03:16.933Z,80.90
2023-05-14T01:05:51.686Z,80.76
2023-05-14T01:08:20.065Z,81.15
2023-05-14T01:10:52.644Z,80.91
2023-05-14T01:13:43.964Z,80.69
2023-05-14T01:16:13.200Z,80.78
2023-05-14T01:18:44.186Z,80.59
2023-05-14T01:21:40.532Z,81.12
2023-05-14T01:24:09.330Z,81.70
2023-05-14T01:26:37.564Z,82.19
2023-05-14T01:29:08.541Z,81.84
2023-05-14T01:31:39.112Z,82.12
2023-05-14T01:34:08.861Z,82.21
2023-05-14T01:36:37.273Z,82.44
2023-05-14T01:39:05.945Z,82.40
2023-05-14T01:41:34.535Z,82.38
2023-05-14T01:44:03.730Z,82.37
2023-05-14T01:46:32.964Z,82.51
2023-05-14T01:49:01.368Z,82.57
2023-05-14T01:51:29.895Z,82.62
2023-05-14T01:53:58.477Z,82.31
2023-05-14T01:56:27.366Z,82.20
2023-05-14T01:58:56.978Z,82.83
2023-05-14T02:01:26.374Z,82.81
2023-05-14T02:03:54.771Z,82.83
2023-05-14T02:06:23.447Z,83.40
2023-05-14T02:08:51.833Z,83.19
2023-05-14T02:11:20.559Z,83.02
2023-05-14T02:13:48.767Z,83.58
2023-05-14T02:16:17.091Z,83.48
2023-05-14T02:18:45.588Z,83.53
2023-05-14T02:21:13.877Z,83.58
2023-05-14T02:23:43.334Z,83.20
2023-05-14T02:26:12.537Z,83.50
2023-05-14T02:28:40.926Z,82.82
2023-05-14T02:31:09.037Z,83.10
2023-05-14T02:33:37.392Z,83.08
2023-05-14T02:36:06.636Z,82.84
2023-05-14T02:38:34.943Z,83.12
2023-05-14T02:41:03.233Z,83.42
2023-05-14T02:43:31.843Z,83.35
2023-05-14T02:45:59.964Z,83.39
2023-05-14T02:48:28.160Z,82.78
2023-05-14T02:50:56.539Z,83.64
2023-05-14T02:53:24.971Z,83.90
2023-05-14T02:55:53.293Z,84.45
2023-05-14T02:58:25.485Z,84.27
2023-05-14T03:00:56.885Z,83.99
2023-05-14T03:03:25.761Z,84.07
2023-05-14T03:05:54.397Z,83.99
2023-05-14T03:08:22.681Z,84.38
2023-05-14T03:10:51.151Z,84.34
2023-05-14T03:13:20.910Z,84.34
2023-05-14T03:15:49.347Z,84.71
2023-05-14T03:18:17.820Z,84.73
2023-05-14T03:20:47.854Z,83.98
2023-05-14T03:23:16.222Z,84.28
2023-05-14T03:25:44.516Z,84.53
2023-05-14T03:28:13.595Z,84.13
2023-05-14T03:30:41.818Z,84.23
2023-05-14T03:33:11.790Z,84.61
2023-05-14T03:35:40.285Z,84.69
2023-05-14T03:38:08.394Z,84.56
2023-05-14T03:40:36.850Z,84.56
2023-05-14T03:43:05.239Z,84.28
2023-05-14T03:45:33.688Z,84.29
2023-05-14T03:48:01.955Z,84.05
2023-05-14T03:50:31.676Z,83.72
2023-05-14T03:52:59.954Z,83.34
2023-05-14T03:55:28.436Z,82.95
2023-05-14T03:57:56.745Z,82.71
2023-05-14T04:00:25.446Z,82.17
2023-05-14T04:02:54.194Z,82.41
2023-05-14T04:05:24.730Z,82.74
2023-05-14T04:07:53.308Z,82.50
2023-05-14T04:10:22.298Z,82.53
2023-05-14T04:12:51.087Z,82.03
2023-05-14T04:15:19.567Z,81.94
2023-05-14T04:17:47.999Z,81.77
2023-05-14T04:20:16.345Z,81.43
2023-05-14T04:22:44.563Z,81.38
2023-05-14T04:25:12.884Z,81.78
2023-05-14T04:27:41.185Z,81.46
2023-05-14T04:30:09.849Z,81.46
2023-05-14T04:32:38.351Z,80.82
2023-05-14T04:35:07.121Z,80.60
2023-05-14T04:37:35.500Z,80.25
2023-05-14T04:40:04.435Z,80.37
2023-05-14T04:42:32.766Z,80.15
2023-05-14T04:45:01.253Z,80.09
2023-05-14T04:47:30.057Z,79.92
2023-05-14T04:49:58.525Z,80.01
2023-05-14T04:52:55.410Z,80.09
2023-05-14T04:56:03.513Z,80.27
2023-05-14T04:58:34.747Z,80.14
2023-05-14T05:01:05.382Z,79.66
2023-05-14T05:03:33.687Z,79.04
2023-05-14T05:06:01.865Z,79.07
2023-05-14T05:08:30.154Z,79.03
2023-05-14T05:10:58.369Z,79.38
2023-05-14T05:13:26.855Z,78.93
2023-05-14T05:15:55.283Z,78.49
2023-05-14T05:18:23.822Z,78.37
2023-05-14T05:20:51.997Z,77.78
2023-05-14T05:23:20.480Z,77.30
2023-05-14T05:25:49.110Z,77.35
2023-05-14T05:28:17.340Z,77.41
2023-05-14T05:30:45.836Z,77.74
2023-05-14T05:33:14.200Z,77.64
2023-05-14T05:35:43.426Z,75.81
2023-05-14T05:38:11.598Z,74.81
2023-05-14T05:40:39.864Z,73.85
2023-05-14T05:43:08.306Z,72.51
2023-05-14T05:45:36.505Z,71.19
2023-05-14T05:48:05.268Z,70.40
2023-05-14T05:50:33.897Z,68.65
2023-05-14T05:53:02.468Z,67.82
2023-05-14T05:55:30.800Z,68.23
2023-05-14T05:57:59.238Z,68.01
2023-05-14T06:00:27.651Z,66.19
2023-05-14T06:02:56.405Z,64.45
2023-05-14T06:05:24.710Z,63.31
2023-05-14T06:07:56.130Z,63.35
2023-05-14T06:10:24.734Z,62.06
2023-05-14T06:12:53.218Z,61.17
2023-05-14T06:15:21.584Z,58.58
2023-05-14T06:17:50.058Z,58.89
2023-05-14T06:20:18.450Z,57.56
2023-05-14T06:22:46.687Z,58.80
2023-05-14T06:25:14.911Z,59.38
2023-05-14T06:27:43.234Z,58.47
2023-05-14T06:30:11.860Z,56.91
2023-05-14T06:32:40.150Z,54.87
2023-05-14T06:35:08.667Z,54.70
2023-05-14T06:37:36.998Z,53.90
2023-05-14T06:40:05.608Z,53.41
2023-05-14T06:42:34.001Z,52.39
2023-05-14T06:45:02.661Z,53.44
2023-05-14T06:47:31.090Z,52.05
2023-05-14T06:50:01.789Z,48.61
2023-05-14T06:52:30.045Z,47.14
2023-05-14T06:54:58.423Z,48.13
2023-05-14T06:57:26.909Z,49.45
2023-05-14T06:59:55.510Z,44.47
2023-05-14T07:02:24.024Z,43.27
2023-05-14T07:04:52.357Z,44.92
2023-05-14T07:07:21.471Z,42.39
2023-05-14T07:09:49.934Z,40.85
2023-05-14T07:12:18.318Z,40.25
2023-05-14T07:14:46.906Z,39.88
2023-05-14T07:17:15.247Z,38.56
2023-05-14T07:19:43.759Z,39.43
2023-05-14T07:22:12.045Z,39.01
2023-05-14T07:24:40.421Z,39.17
2023-05-14T07:27:09.217Z,40.18
2023-05-14T07:29:37.593Z,39.66
2023-05-14T07:32:06.184Z,39.24
2023-05-14T07:34:34.762Z,38.44
2023-05-14T07:37:03.133Z,38.84
2023-05-14T07:39:31.436Z,37.83
2023-05-14T07:42:00.496Z,38.94
2023-05-14T07:44:28.706Z,37.75
2023-05-14T07:46:57.245Z,37.73
2023-05-14T07:49:25.350Z,36.20
2023-05-14T07:51:53.524Z,36.36
2023-05-14T07:54:21.934Z,36.92
2023-05-14T07:56:50.595Z,36.84
2023-05-14T07:59:18.801Z,35.73
2023-05-14T08:01:47.172Z,36.30
2023-05-14T08:04:16.417Z,35.81
2023-05-14T08:06:44.916Z,36.72
2023-05-14T08:09:13.313Z,36.46
2023-05-14T08:11:41.799Z,33.72
2023-05-14T08:14:09.946Z,34.29
2023-05-14T08:16:39.055Z,34.41
2023-05-14T08:19:07.612Z,34.82
2023-05-14T08:21:35.953Z,35.01
2023-05-14T08:24:04.319Z,35.04
2023-05-14T08:26:32.920Z,33.68
2023-05-14T08:29:01.493Z,33.86
2023-05-14T08:31:29.834Z,33.00
2023-05-14T08:33:58.559Z,33.21
2023-05-14T08:36:27.141Z,33.56
2023-05-14T08:38:55.195Z,35.30
2023-05-14T08:41:23.702Z,33.33
2023-05-14T08:44:18.200Z,34.35
2023-05-14T08:46:46.983Z,32.99
2023-05-14T08:49:15.653Z,32.01
2023-05-14T08:51:44.765Z,31.70
2023-05-14T08:54:15.743Z,33.25
2023-05-14T08:56:47.049Z,33.97
2023-05-14T08:59:15.126Z,32.17
2023-05-14T09:01:46.662Z,32.81
2023-05-14T09:04:15.980Z,31.71
2023-05-14T09:06:44.636Z,29.73
2023-05-14T09:09:13.314Z,30.43
2023-05-14T09:11:47.717Z,30.61
2023-05-14T09:14:16.269Z,31.52
2023-05-14T09:16:48.472Z,30.36
2023-05-14T09:19:19.379Z,29.89
2023-05-14T09:21:48.881Z,32.33
2023-05-14T09:24:24.240Z,32.10
2023-05-14T09:26:56.514Z,33.07
2023-05-14T09:29:31.284Z,34.07
2023-05-14T09:32:00.760Z,31.02
2023-05-14T09:34:29.904Z,31.40
2023-05-14T09:36:58.948Z,31.84
2023-05-14T09:39:27.418Z,30.11
2023-05-14T09:41:56.397Z,30.47
2023-05-14T09:44:25.200Z,31.60
2023-05-14T09:46:54.611Z,31.64
2023-05-14T09:49:22.968Z,30.02
2023-05-14T09:51:51.575Z,30.30
2023-05-14T09:54:20.156Z,30.09
2023-05-14T09:56:48.505Z,30.91
2023-05-14T09:59:16.916Z,29.98
2023-05-14T10:01:46.476Z,28.50
2023-05-14T10:04:15.188Z,30.09
2023-05-14T10:06:48.095Z,29.72
2023-05-14T10:09:17.055Z,30.79
2023-05-14T10:11:50.373Z,30.11
2023-05-14T10:14:25.156Z,30.76
2023-05-14T10:16:53.937Z,32.65
2023-05-14T10:19:24.633Z,28.19
2023-05-14T10:22:13.010Z,29.10
2023-05-14T10:24:41.667Z,29.85
2023-05-14T10:27:10.664Z,30.40
2023-05-14T10:29:39.057Z,29.04
2023-05-14T10:32:08.322Z,29.73
2023-05-14T10:34:44.264Z,28.12
2023-05-14T10:37:14.732Z,27.99
2023-05-14T10:39:46.015Z,28.22
2023-05-14T10:42:16.916Z,29.61
2023-05-14T10:44:48.791Z,29.13
2023-05-14T10:47:18.053Z,30.28
2023-05-14T10:49:49.209Z,28.13
2023-05-14T10:52:20.991Z,27.31
2023-05-14T10:55:02.835Z,29.94
2023-05-14T10:57:32.900Z,30.02
2023-05-14T11:00:01.865Z,30.09
2023-05-14T11:02:37.156Z,30.23
2023-05-14T11:05:08.318Z,30.93
2023-05-14T11:07:38.116Z,28.96
2023-05-14T11:10:06.685Z,29.60
2023-05-14T11:12:35.896Z,29.52
2023-05-14T11:15:06.036Z,29.50
2023-05-14T11:17:35.420Z,29.29
2023-05-14T11:20:05.788Z,29.98
2023-05-14T11:22:34.739Z,29.38
2023-05-14T11:25:03.349Z,28.79
2023-05-14T11:27:33.699Z,28.26
2023-05-14T11:30:02.415Z,27.07
2023-05-14T11:32:33.910Z,27.96
2023-05-14T11:35:02.646Z,29.40
2023-05-14T11:37:31.167Z,28.60
2023-05-14T11:40:00.048Z,30.55
2023-05-14T11:42:28.636Z,29.70
2023-05-14T11:44:56.912Z,30.33
2023-05-14T11:47:25.328Z,29.15
2023-05-14T11:49:53.532Z,29.21
2023-05-14T11:52:22.166Z,29.07
2023-05-14T11:54:51.148Z,30.00
2023-05-14T11:57:20.521Z,28.19
2023-05-14T11:59:49.879Z,27.93
2023-05-14T12:02:20.050Z,27.74
2023-05-14T12:04:51.794Z,29.02
2023-05-14T12:07:20.117Z,29.18
2023-05-14T12:09:52.002Z,28.73
2023-05-14T12:12:21.499Z,28.74
2023-05-14T12:14:50.402Z,28.01
2023-05-14T12:17:19.980Z,29.21
2023-05-14T12:19:50.012Z,28.39
2023-05-14T12:22:19.422Z,28.82
2023-05-14T12:24:58.035Z,28.89
2023-05-14T12:27:27.132Z,27.25
2023-05-14T12:30:19.869Z,27.18
2023-05-14T12:32:52.117Z,28.39
2023-05-14T12:35:21.610Z,27.53
2023-05-14T12:37:49.836Z,27.31
2023-05-14T12:40:18.120Z,28.25
2023-05-14T12:42:46.599Z,28.93
2023-05-14T12:45:14.970Z,28.85
2023-05-14T12:47:43.252Z,28.07
2023-05-14T12:50:11.939Z,27.46
2023-05-14T12:52:40.356Z,26.60
2023-05-14T12:55:09.646Z,26.57
2023-05-14T12:57:39.577Z,27.61
2023-05-14T13:00:13.031Z,27.30
2023-05-14T13:02:43.681Z,28.06
2023-05-14T13:05:12.853Z,26.94
2023-05-14T13:07:41.590Z,28.56
2023-05-14T13:10:10.499Z,27.91
2023-05-14T13:12:39.018Z,26.89
2023-05-14T13:15:07.602Z,27.30
2023-05-14T13:17:36.246Z,27.48
2023-05-14T13:20:05.026Z,26.51
2023-05-14T13:22:33.442Z,26.07
2023-05-14T13:25:01.757Z,26.21
2023-05-14T13:27:30.753Z,26.34
2023-05-14T13:29:59.047Z,26.67
2023-05-14T13:32:27.355Z,27.04
2023-05-14T13:34:55.854Z,25.78
2023-05-14T13:37:24.643Z,26.99
2023-05-14T13:39:52.864Z,26.94
2023-05-14T13:42:21.342Z,28.72
2023-05-14T13:44:49.642Z,28.63
2023-05-14T13:47:17.855Z,29.87
2023-05-14T13:49:46.485Z,30.51
2023-05-14T13:52:15.073Z,31.32
2023-05-14T13:54:43.332Z,31.70
2023-05-14T13:57:11.524Z,32.12
2023-05-14T13:59:40.108Z,31.99
2023-05-14T14:02:08.907Z,32.79
2023-05-14T14:04:37.278Z,32.20
2023-05-14T14:07:05.968Z,32.37
2023-05-14T14:09:36.087Z,33.00
2023-05-14T14:12:04.937Z,33.75
2023-05-14T14:14:33.179Z,32.78
2023-05-14T14:17:01.635Z,32.45
2023-05-14T14:19:30.340Z,33.28
2023-05-14T14:21:58.584Z,31.30
2023-05-14T14:24:26.996Z,31.42
2023-05-14T14:26:55.370Z,31.38
2023-05-14T14:29:24.155Z,31.62
2023-05-14T14:31:52.448Z,32.07
2023-05-14T14:34:21.222Z,31.26
2023-05-14T14:36:49.521Z,30.95
2023-05-14T14:39:17.793Z,31.53
2023-05-14T14:41:47.718Z,30.92
2023-05-14T14:44:16.090Z,32.03
2023-05-14T14:46:44.247Z,31.48
2023-05-14T14:49:12.426Z,32.34
2023-05-14T14:51:41.114Z,30.31
2023-05-14T14:54:09.496Z,30.85
2023-05-14T14:56:37.669Z,31.81
2023-05-14T14:59:06.242Z,31.49
2023-05-14T15:01:34.666Z,32.35
2023-05-14T15:04:03.198Z,33.05
2023-05-14T15:06:31.502Z,34.08
2023-05-14T15:08:59.832Z,33.95
2023-05-14T15:11:29.082Z,32.90
2023-05-14T15:13:57.258Z,32.81
2023-05-14T15:16:25.772Z,33.72
2023-05-14T15:18:54.537Z,34.15
2023-05-14T15:21:23.178Z,34.68
2023-05-14T15:23:51.500Z,35.10
2023-05-14T15:26:19.854Z,35.36
2023-05-14T15:28:48.056Z,34.76
2023-05-14T15:31:16.828Z,35.07
2023-05-14T15:33:45.324Z,36.18
2023-05-14T15:36:13.607Z,36.11
2023-05-14T15:38:42.496Z,36.73
2023-05-14T15:41:10.886Z,37.64
2023-05-14T15:43:39.056Z,38.33
2023-05-14T15:46:07.444Z,38.15
2023-05-14T15:48:36.223Z,38.13
2023-05-14T15:51:04.598Z,37.98
2023-05-14T15:53:32.795Z,37.91
2023-05-14T15:56:01.034Z,38.46
2023-05-14T15:58:29.330Z,39.33
2023-05-14T16:00:57.547Z,40.28
2023-05-14T16:03:26.176Z,40.80
2023-05-14T16:05:55.491Z,40.45
2023-05-14T16:08:23.876Z,40.19
2023-05-14T16:10:52.053Z,40.56
2023-05-14T16:13:20.236Z,40.50
2023-05-14T16:15:48.600Z,40.46
2023-05-14T16:18:17.191Z,40.83
2023-05-14T16:20:45.581Z,41.07
2023-05-14T16:23:13.953Z,41.61
2023-05-14T16:25:42.431Z,41.82
2023-05-14T16:28:11.027Z,42.14
2023-05-14T16:30:39.188Z,42.47
2023-05-14T16:33:07.511Z,42.95
2023-05-14T16:35:36.059Z,43.40
2023-05-14T16:38:04.437Z,44.02
2023-05-14T16:40:32.708Z,44.56
2023-05-14T16:43:01.098Z,45.11
2023-05-14T16:45:30.188Z,44.87
2023-05-14T16:47:58.492Z,45.19
2023-05-14T16:50:27.253Z,45.35
2023-05-14T16:52:55.847Z,45.64
2023-05-14T16:55:24.436Z,46.39
2023-05-14T16:57:52.698Z,46.37
2023-05-14T17:00:21.262Z,46.38
2023-05-14T17:02:51.155Z,46.52
2023-05-14T17:05:19.955Z,46.73
2023-05-14T17:07:48.170Z,46.60
2023-05-14T17:10:17.154Z,46.86
2023-05-14T17:12:45.696Z,47.42
2023-05-14T17:15:12.695Z,48.03
2023-05-14T17:17:41.218Z,48.78
2023-05-14T17:20:09.825Z,49.25
2023-05-14T17:22:38.234Z,49.65
2023-05-14T17:25:06.923Z,50.10
2023-05-14T17:27:36.276Z,49.77
2023-05-14T17:30:04.716Z,49.90
2023-05-14T17:32:32.890Z,49.80
2023-05-14T17:35:01.482Z,49.63
2023-05-14T17:37:29.765Z,49.18
2023-05-14T17:39:58.021Z,49.27
2023-05-14T17:42:26.404Z,49.15
2023-05-14T17:44:54.778Z,49.23
2023-05-14T17:47:23.157Z,49.15
2023-05-14T17:49:51.550Z,49.67
2023-05-14T17:52:19.706Z,50.21
2023-05-14T17:54:48.216Z,51.02
2023-05-14T17:57:16.590Z,52.22
2023-05-14T17:59:44.693Z,53.09
2023-05-14T18:02:13.054Z,52.95
2023-05-14T18:04:41.347Z,53.45
2023-05-14T18:07:09.767Z,53.66
2023-05-14T18:09:38.084Z,53.89
2023-05-14T18:12:06.574Z,53.85
2023-05-14T18:14:34.760Z,54.67
2023-05-14T18:17:03.297Z,54.51
2023-05-14T18:19:31.914Z,54.51
2023-05-14T18:22:00.506Z,54.49
2023-05-14T18:24:28.786Z,54.74
2023-05-14T18:26:57.389Z,54.80
2023-05-14T18:29:25.860Z,54.82
2023-05-14T18:31:54.128Z,54.76
2023-05-14T18:34:22.302Z,54.85
2023-05-14T18:36:51.190Z,54.75
2023-05-14T18:39:19.469Z,55.00
2023-05-14T18:41:48.054Z,54.42
2023-05-14T18:44:16.745Z,54.70
2023-05-14T18:46:45.246Z,55.50
2023-05-14T18:49:13.503Z,55.45
2023-05-14T18:51:41.681Z,55.11
2023-05-14T18:54:10.263Z,55.63
2023-05-14T18:56:40.158Z,55.92
2023-05-14T18:59:09.479Z,55.68
2023-05-14T19:01:37.805Z,55.83
2023-05-14T19:04:06.551Z,56.22
2023-05-14T19:06:35.250Z,55.94
2023-05-14T19:09:04.549Z,56.26
2023-05-14T19:11:32.812Z,56.90
2023-05-14T19:14:01.058Z,56.59
2023-05-14T19:16:29.477Z,56.83
2023-05-14T19:18:57.993Z,57.53
2023-05-14T19:21:26.749Z,58.02
2023-05-14T19:23:55.023Z,58.49
2023-05-14T19:26:23.397Z,58.76
2023-05-14T19:28:52.880Z,60.32
2023-05-14T19:31:21.085Z,61.71
2023-05-14T19:33:49.460Z,62.84
2023-05-14T19:36:17.939Z,62.47
2023-05-14T19:38:46.845Z,62.88
2023-05-14T19:41:15.115Z,62.62
2023-05-14T19:43:43.637Z,62.20
2023-05-14T19:46:12.278Z,62.59
2023-05-14T19:48:40.657Z,62.41
2023-05-14T19:51:08.936Z,62.50
2023-05-14T19:53:37.519Z,62.88
2023-05-14T19:56:06.003Z,62.92
2023-05-14T19:58:34.291Z,63.65
2023-05-14T20:01:02.524Z,63.24
2023-05-14T20:03:31.142Z,62.83
2023-05-14T20:05:59.428Z,63.15
2023-05-14T20:08:29.245Z,63.65
2023-05-14T20:10:57.514Z,64.19
2023-05-14T20:13:25.906Z,64.23
2023-05-14T20:15:55.336Z,64.14
2023-05-14T20:18:23.782Z,64.08
2023-05-14T20:20:52.134Z,63.91
2023-05-14T20:23:20.940Z,63.97
2023-05-14T20:25:49.243Z,64.01
2023-05-14T20:28:17.612Z,64.27
2023-05-14T20:30:46.544Z,64.45
2023-05-14T20:33:15.260Z,64.54
2023-05-14T20:35:44.278Z,64.59
2023-05-14T20:38:13.615Z,65.61
2023-05-14T20:40:42.272Z,65.34
2023-05-14T20:43:10.420Z,65.28
2023-05-14T20:45:39.341Z,65.68
2023-05-14T20:48:10.255Z,66.06
2023-05-14T20:50:38.760Z,66.40
2023-05-14T20:53:07.041Z,66.81
2023-05-14T20:55:35.627Z,66.87
2023-05-14T20:58:03.998Z,66.99
2023-05-14T21:00:32.294Z,67.19
2023-05-14T21:03:01.041Z,67.25
2023-05-14T21:05:29.590Z,68.13
2023-05-14T21:07:57.734Z,67.90
2023-05-14T21:10:26.290Z,68.55
2023-05-14T21:12:55.306Z,68.25
2023-05-14T21:15:23.694Z,67.77
2023-05-14T21:17:52.682Z,68.40
2023-05-14T21:20:21.473Z,68.46
2023-05-14T21:22:49.850Z,68.09
2023-05-14T21:25:18.069Z,68.14
2023-05-14T21:27:46.510Z,68.72
2023-05-14T21:30:15.190Z,68.25
2023-05-14T21:32:43.395Z,68.39
2023-05-14T21:35:11.762Z,68.88
2023-05-14T21:37:40.609Z,69.35
2023-05-14T21:40:09.594Z,69.50
2023-05-14T21:42:39.672Z,70.13
2023-05-14T21:45:08.184Z,70.15
2023-05-14T21:47:37.021Z,70.10
2023-05-14T21:50:05.928Z,70.43
2023-05-14T21:52:33.977Z,70.67
2023-05-14T21:55:02.384Z,71.02
2023-05-14T21:57:34.113Z,70.37
2023-05-14T22:00:04.401Z,70.46
2023-05-14T22:02:32.832Z,70.19
2023-05-14T22:05:01.414Z,71.30
2023-05-14T22:07:29.696Z,71.05
2023-05-14T22:09:58.382Z,71.28
2023-05-14T22:12:26.973Z,71.29
2023-05-14T22:14:55.755Z,71.14
2023-05-14T22:17:24.160Z,71.30
2023-05-14T22:19:52.257Z,71.55
2023-05-14T22:22:20.792Z,71.58
2023-05-14T22:24:49.066Z,71.99
2023-05-14T22:27:17.856Z,71.86
2023-05-14T22:29:46.134Z,72.43
2023-05-14T22:32:14.624Z,73.32
2023-05-14T22:34:42.894Z,72.83
2023-05-14T22:37:11.210Z,72.63
2023-05-14T22:39:39.670Z,72.46
2023-05-14T22:42:08.356Z,72.60
2023-05-14T22:44:37.237Z,72.88
2023-05-14T22:47:05.724Z,72.37
2023-05-14T22:49:34.216Z,72.60
2023-05-14T22:52:02.473Z,73.10
2023-05-14T22:54:30.646Z,73.34
2023-05-14T22:56:59.135Z,73.17
2023-05-14T22:59:27.331Z,72.71
2023-05-14T23:01:55.646Z,72.69
2023-05-14T23:04:24.406Z,72.85
2023-05-14T23:06:52.961Z,73.15
2023-05-14T23:09:21.133Z,73.27
2023-05-14T23:11:49.305Z,73.40
2023-05-14T23:14:18.617Z,73.37
2023-05-14T23:16:47.001Z,73.26
2023-05-14T23:19:15.476Z,73.27
2023-05-14T23:21:43.967Z,73.26
2023-05-14T23:24:12.332Z,73.51
2023-05-14T23:26:40.713Z,73.41
2023-05-14T23:29:08.892Z,73.53
2023-05-14T23:31:37.744Z,73.54
2023-05-14T23:34:06.003Z,73.95
2023-05-14T23:36:34.239Z,74.10
2023-05-14T23:39:02.612Z,74.41
2023-05-14T23:41:31.919Z,74.27
2023-05-14T23:44:00.096Z,74.80
2023-05-14T23:46:28.384Z,74.47
2023-05-14T23:48:57.249Z,74.22
2023-05-14T23:51:26.573Z,74.13
2023-05-14T23:53:58.680Z,74.25
2023-05-14T23:56:30.614Z,74.23
2023-05-14T23:58:59.170Z,74.28
